Time;durP1;ratioP1;P1;durP2;ratioP2;P2;SDS_P1;SDS_P2;PMS_P1;PMS_P2;Temp;Humidity;BMP_temperature;BMP_pressure;BME280_temperature;BME280_humidity;BME280_pressure;Samples;Min_cycle;Max_cycle;Signal;HPM_P1;HPM_P2
2022/07/13 00:00:00;;;;;;;14.57;4.47;;;;;;;16.17;49.00;100480.63;123541;1098;104367;-77
2022/07/13 00:02:32;;;;;;;9.55;3.40;;;;;;;16.21;49.06;100478.02;123527;1098;104638;-77
2022/07/13 00:05:06;;;;;;;12.10;3.30;;;;;;;16.20;48.65;100482.41;123682;1099;104302;-77
2022/07/13 00:07:38;;;;;;;5.47;2.90;;;;;;;16.15;49.47;100484.11;123759;1099;104341;-78
2022/07/13 00:10:10;;;;;;;7.23;3.27;;;;;;;16.09;48.59;100479.62;123630;1099;104267;-77
2022/07/13 00:12:42;;;;;;;10.70;3.80;;;;;;;16.02;49.86;100480.43;123690;1099;104248;-77
2022/07/13 00:15:14;;;;;;;7.53;3.00;;;;;;;15.94;49.00;100476.77;123751;1099;104278;-77
2022/07/13 00:17:46;;;;;;;10.23;3.43;;;;;;;15.89;49.82;100474.06;123746;1099;104278;-77
2022/07/13 00:20:18;;;;;;;10.23;3.50;;;;;;;15.87;49.54;100474.93;123681;1099;104319;-77
2022/07/13 00:22:50;;;;;;;7.47;3.37;;;;;;;15.80;49.09;100472.20;123702;1099;104347;-77
2022/07/13 00:25:22;;;;;;;12.70;3.40;;;;;;;15.77;50.33;100466.86;123652;1099;104315;-77
2022/07/13 00:27:54;;;;;;;13.10;3.87;;;;;;;15.72;50.49;100465.89;123677;1099;104271;-78
2022/07/13 00:30:26;;;;;;;6.37;3.20;;;;;;;15.68;50.13;100466.70;123564;1099;104343;-78
2022/07/13 00:32:57;;;;;;;11.53;3.17;;;;;;;15.61;50.63;100465.73;123491;1099;104786;-78
2022/07/13 00:35:29;;;;;;;7.03;2.90;;;;;;;15.57;50.92;100476.24;123467;1099;104348;-78
2022/07/13 00:38:01;;;;;;;9.93;3.17;;;;;;;15.52;50.21;100481.46;123711;1099;104315;-78
2022/07/13 00:40:33;;;;;;;8.93;3.40;;;;;;;15.45;50.23;100475.16;123736;1099;104303;-78
2022/07/13 00:43:04;;;;;;;8.87;3.23;;;;;;;15.39;51.20;100474.19;123631;1099;104664;-78
2022/07/13 00:45:37;;;;;;;11.87;3.70;;;;;;;15.32;51.46;100478.50;123451;1099;105873;-78
2022/07/13 00:48:10;;;;;;;9.83;3.50;;;;;;;15.24;52.89;100480.14;123693;1099;104373;-78
2022/07/13 00:50:44;;;;;;;8.63;3.60;;;;;;;15.14;52.08;100480.84;123357;1099;104268;-78
2022/07/13 00:53:17;;;;;;;6.33;3.60;;;;;;;15.07;52.27;100478.09;123494;1099;104236;-78
2022/07/13 00:55:49;;;;;;;11.13;3.43;;;;;;;15.01;52.41;100475.34;123493;1099;104371;-79
2022/07/13 00:58:24;;;;;;;8.53;2.97;;;;;;;14.98;52.54;100466.48;123337;1099;104418;-78
2022/07/13 01:00:55;;;;;;;12.63;3.47;;;;;;;14.96;52.97;100468.19;123567;1099;104303;-78
2022/07/13 01:03:27;;;;;;;10.27;2.90;;;;;;;14.95;52.74;100469.08;123674;1099;104169;-78
2022/07/13 01:05:59;;;;;;;11.00;3.40;;;;;;;14.92;52.54;100462.85;123608;1099;104274;-78
2022/07/13 01:08:31;;;;;;;6.00;3.07;;;;;;;14.91;52.65;100460.19;123210;1099;104256;-78
2022/07/13 01:11:03;;;;;;;9.73;3.27;;;;;;;14.88;52.38;100460.13;123226;1102;104413;-77
2022/07/13 01:13:35;;;;;;;10.97;3.50;;;;;;;14.89;53.42;100462.80;123419;1099;104220;-77
2022/07/13 01:16:09;;;;;;;7.27;3.87;;;;;;;14.95;53.18;100456.75;123496;1098;104345;-77
2022/07/13 01:18:38;;;;;;;;;;;;;;;15.03;52.56;100452.47;123652;1099;104325;-77
2022/07/13 01:21:12;;;;;;;7.07;3.20;;;;;;;15.11;52.51;100447.31;123583;1099;104643;-78
2022/07/13 01:23:44;;;;;;;13.70;3.80;;;;;;;15.18;53.03;100441.27;123570;1099;104265;-77
2022/07/13 01:26:16;;;;;;;21.00;4.87;;;;;;;15.25;53.19;100444.89;123514;1099;104290;-78
2022/07/13 01:28:49;;;;;;;9.80;3.40;;;;;;;15.21;52.72;100437.80;123307;1099;111898;-78
2022/07/13 01:31:36;;;;;;;9.73;3.10;;;;;;;15.18;53.30;100440.40;123270;1099;104271;-78
2022/07/13 01:34:08;;;;;;;7.40;3.20;;;;;;;15.07;52.97;100441.09;123464;1099;104272;-78
2022/07/13 01:36:41;;;;;;;12.43;3.10;;;;;;;15.00;52.96;100447.13;123524;1099;104236;-79
2022/07/13 01:39:13;;;;;;;6.27;3.00;;;;;;;14.91;53.03;100441.69;123792;1099;104334;-78
2022/07/13 01:41:44;;;;;;;8.33;3.10;;;;;;;14.85;53.78;100439.86;123761;1098;104637;-78
2022/07/13 01:44:18;;;;;;;10.87;3.37;;;;;;;14.79;54.06;100439.75;123438;1099;104319;-78
2022/07/13 01:46:52;;;;;;;10.70;3.20;;;;;;;14.74;53.39;100437.02;123839;1098;104345;-78
2022/07/13 01:49:26;;;;;;;9.43;3.40;;;;;;;14.70;53.42;100435.18;123458;1099;104737;-78
2022/07/13 01:51:58;;;;;;;9.57;3.40;;;;;;;14.66;54.38;100445.66;123454;1099;104428;-78
2022/07/13 01:54:29;;;;;;;7.73;3.20;;;;;;;14.60;54.04;100445.52;123485;1099;104749;-78
2022/07/13 01:57:01;;;;;;;11.47;3.43;;;;;;;14.54;54.50;100439.27;123519;1099;104265;-78
2022/07/13 01:59:33;;;;;;;10.70;3.40;;;;;;;14.51;54.68;100447.13;123621;1099;104342;-78
2022/07/13 02:02:06;;;;;;;11.63;3.70;;;;;;;14.48;54.23;100440.91;123422;1099;104402;-79
2022/07/13 02:04:38;;;;;;;8.87;3.47;;;;;;;14.45;54.38;100444.37;123651;1099;104617;-78
2022/07/13 02:07:10;;;;;;;13.93;4.03;;;;;;;14.45;54.58;100440.86;123673;1099;104319;-79
2022/07/13 02:09:42;;;;;;;8.00;3.20;;;;;;;14.45;54.43;100446.13;123706;1099;104264;-78
2022/07/13 02:12:14;;;;;;;7.00;3.17;;;;;;;14.41;54.79;100441.65;123822;1099;104317;-78
2022/07/13 02:14:47;;;;;;;7.73;3.37;;;;;;;14.38;54.62;100434.55;123979;1099;104412;-78
2022/07/13 02:17:19;;;;;;;10.13;3.63;;;;;;;14.38;55.34;100435.45;123871;1099;104210;-78
2022/07/13 02:19:52;;;;;;;8.27;3.50;;;;;;;14.46;54.84;100437.33;123797;1099;104348;-78
2022/07/13 02:22:29;;;;;;;10.83;3.70;;;;;;;14.58;55.36;100441.97;124129;1099;104245;-77
2022/07/13 02:25:05;;;;;;;16.43;3.43;;;;;;;14.66;54.64;100435.09;123670;1099;104333;-77
2022/07/13 02:27:37;;;;;;;8.23;3.40;;;;;;;14.75;55.09;100429.98;123621;1099;104235;-79
2022/07/13 02:30:11;;;;;;;9.77;3.50;;;;;;;14.80;54.99;100433.58;123316;1099;104280;-77
2022/07/13 02:32:44;;;;;;;8.63;3.53;;;;;;;14.76;54.48;100431.77;123619;1099;104281;-77
2022/07/13 02:35:16;;;;;;;10.60;3.47;;;;;;;14.72;54.85;100432.56;123452;1099;104160;-78
2022/07/13 02:37:48;;;;;;;8.43;3.50;;;;;;;14.65;54.63;100428.05;123745;1099;104285;-78
2022/07/13 02:40:19;;;;;;;13.50;3.60;;;;;;;14.60;55.09;100427.98;123792;1099;104392;-77
2022/07/13 02:42:52;;;;;;;13.20;3.60;;;;;;;14.58;55.46;100429.64;123810;1099;104347;-78
2022/07/13 02:45:24;;;;;;;8.73;3.30;;;;;;;14.58;55.20;100428.77;123721;1099;104367;-77
2022/07/13 02:47:58;;;;;;;48.73;8.83;;;;;;;14.66;54.55;100433.37;123668;1099;104337;-77
2022/07/13 02:50:31;;;;;;;20.50;4.85;;;;;;;14.69;55.18;100441.34;123602;1099;119751;-77
2022/07/13 02:53:03;;;;;;;12.23;3.47;;;;;;;14.73;54.79;100439.64;123585;1099;104370;-77
2022/07/13 02:55:35;;;;;;;8.33;3.90;;;;;;;14.70;55.53;100437.82;123686;1099;104216;-77
2022/07/13 02:58:06;;;;;;;15.47;4.07;;;;;;;14.65;55.18;100426.30;123566;1099;104373;-78
2022/07/13 03:00:38;;;;;;;11.70;3.87;;;;;;;14.69;55.84;100436.06;123272;1099;104533;-77
2022/07/13 03:03:10;;;;;;;9.37;3.53;;;;;;;14.71;55.24;100436.97;123352;1099;104345;-78
2022/07/13 03:05:42;;;;;;;9.63;3.67;;;;;;;14.74;55.97;100428.22;123353;1099;104421;-77
2022/07/13 03:08:13;;;;;;;10.47;3.80;;;;;;;14.74;55.99;100431.74;123326;1100;104338;-78
2022/07/13 03:10:45;;;;;;;10.57;3.73;;;;;;;14.73;55.82;100429.95;123265;1102;104477;-77
2022/07/13 03:13:17;;;;;;;10.67;3.80;;;;;;;14.71;55.53;100431.69;123265;1099;104434;-77
2022/07/13 03:15:48;;;;;;;14.13;3.93;;;;;;;14.68;55.91;100433.39;123365;1099;104683;-78
2022/07/13 03:18:20;;;;;;;9.40;3.83;;;;;;;14.65;55.96;100428.94;123356;1100;104520;-78
2022/07/13 03:20:55;;;;;;;11.47;3.70;;;;;;;14.64;56.05;100427.14;123227;1101;104890;-77
2022/07/13 03:23:27;;;;;;;12.00;3.97;;;;;;;14.66;56.00;100427.17;123165;1098;104386;-78
2022/07/13 03:25:58;;;;;;;12.40;4.40;;;;;;;14.68;56.11;100426.35;123507;1099;104388;-77
2022/07/13 03:28:30;;;;;;;12.07;4.10;;;;;;;14.69;55.72;100427.23;123592;1102;104396;-77
2022/07/13 03:31:03;;;;;;;11.97;4.07;;;;;;;14.70;56.77;100424.61;123380;1100;104352;-77
2022/07/13 03:33:34;;;;;;;10.67;4.10;;;;;;;14.70;55.93;100418.45;123314;1102;104973;-77
2022/07/13 03:36:09;;;;;;;14.97;4.33;;;;;;;14.74;56.52;100421.18;123343;1099;104255;-77
2022/07/13 03:38:42;;;;;;;15.20;4.13;;;;;;;14.79;56.70;100412.42;123496;1099;104360;-77
2022/07/13 03:41:14;;;;;;;9.93;4.50;;;;;;;14.83;56.66;100403.70;123494;1099;104195;-78
2022/07/13 03:43:46;;;;;;;12.90;3.97;;;;;;;14.84;56.59;100410.77;123602;1099;104495;-79
2022/07/13 03:46:18;;;;;;;20.90;4.60;;;;;;;14.84;57.07;100398.44;123718;1099;104267;-78
2022/07/13 03:48:49;;;;;;;21.10;4.30;;;;;;;14.84;56.06;100394.92;123549;1099;104386;-78
2022/07/13 03:51:21;;;;;;;11.27;3.40;;;;;;;14.85;56.99;100401.96;123493;1099;104345;-78
2022/07/13 03:53:53;;;;;;;8.85;3.50;;;;;;;14.87;56.84;100394.97;123455;1099;104658;-77
2022/07/13 03:56:24;;;;;;;10.00;3.73;;;;;;;14.87;57.11;100397.61;123674;1099;104495;-78
2022/07/13 03:58:56;;;;;;;12.00;3.90;;;;;;;14.90;56.53;100395.91;123567;1099;104373;-78
2022/07/13 04:01:28;;;;;;;11.87;3.80;;;;;;;14.95;56.88;100395.98;123647;1099;104329;-78
2022/07/13 04:04:00;;;;;;;11.20;3.90;;;;;;;15.03;56.82;100396.98;123570;1099;104261;-77
2022/07/13 04:06:32;;;;;;;12.27;3.50;;;;;;;15.10;56.71;100393.58;123538;1099;104398;-77
2022/07/13 04:09:05;;;;;;;11.17;4.70;;;;;;;15.16;56.22;100390.16;123620;1099;104369;-77
2022/07/13 04:11:38;;;;;;;10.23;3.50;;;;;;;15.23;56.28;100392.00;124355;1099;104258;-78
2022/07/13 04:14:10;;;;;;;13.57;4.73;;;;;;;15.32;57.19;100388.63;124504;1099;104274;-78
2022/07/13 04:16:42;;;;;;;15.80;3.77;;;;;;;15.41;57.13;100395.77;124592;1098;104328;-77
2022/07/13 04:19:14;;;;;;;13.03;3.90;;;;;;;15.47;57.13;100387.93;124694;1099;104293;-77
2022/07/13 04:21:45;;;;;;;9.50;3.50;;;;;;;15.55;56.20;100390.68;124321;1099;104248;-78
2022/07/13 04:24:17;;;;;;;10.27;3.50;;;;;;;15.63;56.33;100389.05;124126;1099;104296;-78
2022/07/13 04:26:48;;;;;;;9.83;3.60;;;;;;;15.72;56.39;100389.17;123922;1099;104398;-78
2022/07/13 04:29:20;;;;;;;20.97;4.30;;;;;;;15.79;56.87;100383.11;123794;1099;104255;-78
2022/07/13 04:31:51;;;;;;;13.50;4.17;;;;;;;15.86;56.88;100388.47;123662;1099;104271;-77
2022/07/13 04:34:23;;;;;;;14.67;4.10;;;;;;;15.90;56.62;100391.17;123560;1099;104399;-77
2022/07/13 04:36:56;;;;;;;12.37;4.30;;;;;;;15.96;56.31;100380.66;123577;1099;104339;-77
2022/07/13 04:39:31;;;;;;;14.00;4.20;;;;;;;16.04;55.96;100383.41;123369;1100;104299;-77
2022/07/13 04:42:03;;;;;;;16.97;4.20;;;;;;;16.11;56.66;100374.67;123664;1099;104269;-78
2022/07/13 04:44:34;;;;;;;13.73;3.83;;;;;;;16.21;56.17;100383.59;123458;1102;104337;-77
2022/07/13 04:47:06;;;;;;;13.33;4.27;;;;;;;16.31;56.35;100385.48;123635;1099;104357;-77
2022/07/13 04:49:41;;;;;;;14.47;3.90;;;;;;;16.38;55.72;100383.77;123925;1099;104267;-77
2022/07/13 04:52:12;;;;;;;14.87;4.23;;;;;;;16.44;56.02;100374.98;123538;1099;104418;-77
2022/07/13 04:54:45;;;;;;;;;;;;;;;16.52;56.54;100368.90;123474;1102;104390;-77
2022/07/13 04:57:16;;;;;;;12.93;3.87;;;;;;;16.62;55.93;100374.28;123387;1102;104424;-78
2022/07/13 04:59:48;;;;;;;14.00;3.80;;;;;;;16.72;55.82;100378.80;123659;1102;104213;-79
2022/07/13 05:02:19;;;;;;;17.40;4.63;;;;;;;16.80;55.54;100374.44;123613;1100;104418;-78
2022/07/13 05:04:51;;;;;;;20.40;4.60;;;;;;;16.88;55.84;100367.46;123656;1102;104348;-77
2022/07/13 05:07:22;;;;;;;14.57;3.87;;;;;;;16.99;56.17;100374.62;123628;1102;104366;-77
2022/07/13 05:09:54;;;;;;;15.50;4.27;;;;;;;17.07;55.70;100379.08;123807;1100;105393;-78
2022/07/13 05:12:26;;;;;;;15.17;4.17;;;;;;;17.17;55.38;100369.45;123948;1102;104379;-77
2022/07/13 05:14:58;;;;;;;16.30;4.40;;;;;;;17.27;55.75;100374.81;123780;1102;104431;-78
2022/07/13 05:17:31;;;;;;;14.83;4.10;;;;;;;17.38;55.49;100378.41;124891;1099;104297;-77
2022/07/13 05:20:07;;;;;;;17.17;3.87;;;;;;;17.50;55.35;100377.58;125034;1099;104159;-78
2022/07/13 05:22:40;;;;;;;10.30;3.37;;;;;;;17.61;54.75;100371.45;124831;1100;103449;-77
2022/07/13 05:25:12;;;;;;;6.35;3.10;;;;;;;17.75;54.91;100374.17;124918;1102;102467;-79
2022/07/13 05:28:09;;;;;;;9.17;2.57;;;;;;;17.88;54.13;100377.80;124945;1099;104345;-78
2022/07/13 05:30:41;;;;;;;4.90;2.50;;;;;;;18.04;53.98;100367.23;124162;1102;104245;-79
2022/07/13 05:33:18;;;;;;;1.90;1.70;;;;;;;18.19;53.61;100369.93;124513;1099;104232;-78
2022/07/13 05:35:53;;;;;;;4.60;2.10;;;;;;;18.36;52.75;100359.34;124346;1102;103620;-80
2022/07/13 05:38:28;;;;;;;3.67;2.00;;;;;;;18.50;52.84;100354.05;124437;1102;104402;-79
2022/07/13 05:41:01;;;;;;;6.23;1.60;;;;;;;18.59;52.07;100338.11;125247;1102;103738;-80
2022/07/13 05:43:40;;;;;;;5.73;1.90;;;;;;;18.83;51.75;100350.49;124509;1102;102772;-79
2022/07/13 05:46:14;;;;;;;3.60;1.77;;;;;;;19.02;51.59;100350.52;124756;1103;104229;-82
2022/07/13 05:48:48;;;;;;;2.10;1.40;;;;;;;19.21;50.84;100348.70;125268;1100;102996;-79
2022/07/13 05:51:21;;;;;;;4.73;1.50;;;;;;;19.42;51.19;100350.44;125336;1102;104175;-80
2022/07/13 05:53:56;;;;;;;3.17;1.70;;;;;;;19.61;50.66;100353.91;124166;1102;104534;-80
2022/07/13 05:56:33;;;;;;;3.00;1.40;;;;;;;19.75;48.85;100348.53;124434;1102;104263;-80
2022/07/13 05:59:13;;;;;;;1.50;1.40;;;;;;;19.93;50.05;100344.95;124765;1102;102764;-79
2022/07/13 06:01:47;;;;;;;1.93;1.57;;;;;;;20.09;49.68;100351.94;125483;1099;104304;-78
2022/07/13 06:04:19;;;;;;;2.80;2.00;;;;;;;20.23;48.87;100342.99;125466;1102;108327;-79
2022/07/13 06:06:53;;;;;;;3.23;1.47;;;;;;;20.32;48.39;100345.59;124302;1102;104536;-78
2022/07/13 06:09:27;;;;;;;2.15;1.50;;;;;;;20.44;47.56;100337.52;124555;1102;104187;-79
2022/07/13 06:12:00;;;;;;;3.07;1.50;;;;;;;20.54;48.30;100342.78;124615;1102;103143;-78
2022/07/13 06:14:34;;;;;;;2.25;1.60;;;;;;;20.63;47.46;100345.34;124517;1102;119421;-75
2022/07/13 06:17:12;;;;;;;3.80;1.90;;;;;;;20.68;46.63;100340.91;124438;1102;104328;-80
2022/07/13 06:19:50;;;;;;;6.43;1.60;;;;;;;20.71;47.25;100342.64;125421;1102;102637;-80
2022/07/13 06:22:24;;;;;;;5.83;1.40;;;;;;;20.70;45.63;100346.23;125356;1102;104243;-84
2022/07/13 06:24:59;;;;;;;3.53;1.23;;;;;;;20.67;46.22;100339.13;125503;1102;104319;-79
2022/07/13 06:27:31;;;;;;;1.73;1.13;;;;;;;20.66;45.68;100342.69;125451;1102;104296;-78
2022/07/13 06:30:07;;;;;;;3.97;1.50;;;;;;;20.64;45.08;100339.13;124576;1102;104277;-78
2022/07/13 06:32:45;;;;;;;3.93;1.60;;;;;;;20.69;46.35;100347.98;125416;1102;104258;-81
2022/07/13 06:35:22;;;;;;;5.40;1.40;;;;;;;20.73;46.04;100344.41;124581;1102;112063;-81
2022/07/13 06:38:09;;;;;;;1.77;1.60;;;;;;;20.79;45.51;100346.16;125436;1102;104115;-79
2022/07/13 06:40:53;;;;;;;9.97;2.30;;;;;;;20.91;44.25;100355.81;125513;1099;103713;-78
2022/07/13 06:43:37;;;;;;;4.77;1.47;;;;;;;21.01;44.13;100345.04;125968;1099;104723;-79
2022/07/13 06:46:16;;;;;;;5.33;1.40;;;;;;;21.14;44.78;100351.12;126014;1099;103625;-79
2022/07/13 06:48:57;;;;;;;2.27;1.50;;;;;;;21.24;43.42;100341.27;126135;1099;102177;-80
2022/07/13 06:51:36;;;;;;;3.63;1.30;;;;;;;21.37;43.50;100350.89;126258;1099;103005;-81
2022/07/13 06:54:14;;;;;;;1.47;1.10;;;;;;;21.59;43.29;100342.67;126156;1099;104239;-81
2022/07/13 06:56:48;;;;;;;3.27;1.43;;;;;;;21.81;43.00;100345.07;125153;1099;104226;-80
2022/07/13 06:59:45;;;;;;;6.27;2.00;;;;;;;22.04;42.27;100348.31;124735;1099;104258;-82
2022/07/13 07:02:29;;;;;;;1.53;1.43;;;;;;;22.42;42.74;100344.23;126019;1099;104236;-80
2022/07/13 07:05:09;;;;;;;1.20;1.10;;;;;;;22.66;42.64;100338.49;125435;1099;104297;-80
2022/07/13 07:07:46;;;;;;;3.10;1.30;;;;;;;22.86;41.43;100331.03;125228;1099;103028;-78
2022/07/13 07:10:24;;;;;;;1.40;1.30;;;;;;;23.10;41.86;100329.72;125445;1102;103580;-78
2022/07/13 07:12:59;;;;;;;1.20;1.10;;;;;;;23.28;41.86;100331.18;125509;1102;103351;-80
2022/07/13 07:15:38;;;;;;;1.33;1.20;;;;;;;23.43;40.55;100331.78;125272;1102;104175;-78
2022/07/13 07:18:12;;;;;;;1.30;1.20;;;;;;;23.50;40.73;100318.23;125189;1099;104396;-77
2022/07/13 07:20:49;;;;;;;2.03;1.20;;;;;;;23.55;39.84;100326.17;124792;1102;102563;-80
2022/07/13 07:23:42;;;;;;;6.30;1.60;;;;;;;23.61;40.15;100333.22;125437;1102;104197;-79
2022/07/13 07:26:26;;;;;;;1.33;1.10;;;;;;;23.59;39.90;100329.66;125251;1102;103214;-79
2022/07/13 07:29:02;;;;;;;7.43;1.67;;;;;;;23.60;39.42;100326.95;125244;1102;104158;-78
2022/07/13 07:31:40;;;;;;;4.80;1.63;;;;;;;23.69;39.93;100328.57;125492;1102;104261;-79
2022/07/13 07:34:23;;;;;;;7.33;1.63;;;;;;;23.74;39.03;100323.12;125474;1101;104292;-80
2022/07/13 07:36:56;;;;;;;5.53;1.25;;;;;;;23.80;37.80;100320.30;124689;1102;104358;-77
2022/07/13 07:39:29;;;;;;;1.73;1.37;;;;;;;23.94;38.11;100322.72;124706;1102;104264;-80
2022/07/13 07:42:05;;;;;;;3.13;1.40;;;;;;;24.16;38.29;100320.42;124648;1099;104393;-79
2022/07/13 07:44:37;;;;;;;1.30;1.20;;;;;;;24.48;37.89;100311.61;124844;1099;104261;-78
2022/07/13 07:47:16;;;;;;;3.23;1.20;;;;;;;24.69;37.79;100307.52;124698;1102;104240;-78
2022/07/13 07:49:49;;;;;;;7.37;1.73;;;;;;;24.88;37.51;100307.05;124653;1099;103873;-81
2022/07/13 07:52:30;;;;;;;5.33;1.70;;;;;;;25.03;36.26;100317.38;124827;1099;103147;-81
2022/07/13 07:55:17;;;;;;;8.43;1.40;;;;;;;25.24;36.13;100315.02;125526;1099;102779;-79
2022/07/13 07:57:51;;;;;;;3.03;0.90;;;;;;;25.47;35.90;100301.83;126094;1098;102908;-79
2022/07/13 08:00:28;;;;;;;5.37;1.23;;;;;;;25.67;35.74;100305.75;126175;1099;103037;-81
2022/07/13 08:03:05;;;;;;;1.13;1.10;;;;;;;25.72;35.32;100303.80;125135;1099;104423;-78
2022/07/13 08:05:52;;;;;;;4.00;1.70;;;;;;;25.56;34.56;100311.44;125368;1099;104200;-77
2022/07/13 08:08:46;;;;;;;15.00;2.97;;;;;;;25.34;34.71;100300.45;126101;1099;102848;-81
2022/07/13 08:11:25;;;;;;;8.20;1.53;;;;;;;25.24;35.20;100305.17;126675;1098;103711;-80
2022/07/13 08:14:00;;;;;;;4.13;1.30;;;;;;;25.22;34.36;100300.76;126629;1098;102654;-79
2022/07/13 08:16:40;;;;;;;6.67;1.47;;;;;;;25.21;34.46;100310.63;125967;1099;102471;-80
2022/07/13 08:19:21;;;;;;;3.63;1.20;;;;;;;25.10;34.19;100313.61;125578;1102;103184;-78
2022/07/13 08:22:02;;;;;;;4.13;1.83;;;;;;;25.07;34.46;100302.95;125266;1101;104113;-79
2022/07/13 08:24:35;;;;;;;5.20;1.63;;;;;;;25.18;34.40;100309.81;125425;1101;103519;-80
2022/07/13 08:27:08;;;;;;;4.40;1.70;;;;;;;25.29;34.05;100305.05;125417;1102;104245;-77
2022/07/13 08:29:46;;;;;;;3.17;1.40;;;;;;;25.63;33.54;100301.39;124715;1102;104224;-80
2022/07/13 08:32:22;;;;;;;2.90;1.20;;;;;;;25.94;33.08;100297.77;124672;1102;104508;-78
2022/07/13 08:40:49;;;;;;;3.07;1.30;;;;;;;26.40;32.93;100285.58;124764;1102;104213;-79
2022/07/13 08:43:30;;;;;;;2.17;1.60;;;;;;;26.17;31.87;100291.70;125421;1102;104313;-83
2022/07/13 08:46:08;;;;;;;7.40;1.20;;;;;;;26.02;32.27;100303.81;124833;1102;104319;-82
2022/07/13 08:48:48;;;;;;;3.17;1.30;;;;;;;25.98;32.60;100302.17;125440;1102;104233;-82
2022/07/13 08:51:25;;;;;;;9.70;1.53;;;;;;;25.88;31.95;100296.14;125557;1102;102466;-80
2022/07/13 08:54:16;;;;;;;2.07;1.27;;;;;;;25.75;32.49;100303.70;124886;1102;102797;-81
2022/07/13 08:57:03;;;;;;;8.97;1.53;;;;;;;25.57;32.14;100305.16;126070;1098;103177;-78
2022/07/13 08:59:59;;;;;;;6.90;1.67;;;;;;;25.43;32.62;100293.91;126027;1099;104194;-81
2022/07/13 09:02:54;;;;;;;17.23;3.00;;;;;;;25.28;32.56;100304.17;126160;1099;103345;-80
2022/07/13 09:08:45;;;;;;;11.43;2.27;;;;;;;24.73;32.70;100300.30;125356;1102;122174;-81
2022/07/13 09:11:37;;;;;;;8.20;1.87;;;;;;;24.52;32.80;100307.91;125225;1102;103080;-85
2022/07/13 09:14:34;;;;;;;16.53;3.00;;;;;;;24.30;33.02;100307.56;125221;1102;104242;-82
2022/07/13 09:17:29;;;;;;;5.93;1.90;;;;;;;24.18;33.33;100298.03;125239;1102;103402;-76
2022/07/13 09:20:50;;;;;;;;;;;;;;;;;;;;;
2022/07/13 09:23:32;;;;;;;5.17;1.50;;;;;;;24.36;33.54;100295.82;124352;1102;103054;-76
2022/07/13 09:26:13;;;;;;;2.20;1.60;;;;;;;24.40;33.82;100298.39;124738;1102;102808;-77
2022/07/13 09:28:47;;;;;;;5.77;1.40;;;;;;;24.32;33.54;100296.80;124461;1102;103154;-78
2022/07/13 09:31:20;;;;;;;4.33;1.63;;;;;;;24.31;33.55;100298.61;124434;1102;104368;-78
2022/07/13 09:33:57;;;;;;;10.70;2.07;;;;;;;24.35;33.60;100297.59;125316;1102;102910;-78
2022/07/13 09:36:47;;;;;;;2.63;1.20;;;;;;;24.45;33.57;100295.59;125564;1099;104233;-80
2022/07/13 09:39:26;;;;;;;2.58;1.32;;;;;;;24.64;33.42;100314.81;117162;1099;10001306;-81
2022/07/13 09:42:02;;;;;;;3.60;1.60;;;;;;;24.77;33.47;100293.91;125923;1099;104179;-77
2022/07/13 09:47:51;;;;;;;1.97;1.40;;;;;;;25.17;33.42;100294.65;125497;1099;103668;-79
2022/07/13 09:50:45;;;;;;;9.77;1.70;;;;;;;25.26;33.59;100297.08;126011;1099;102953;-77
2022/07/13 09:53:31;;;;;;;1.73;1.40;;;;;;;25.28;33.59;100284.48;126853;1098;102115;-79
2022/07/13 09:56:33;;;;;;;4.83;1.87;;;;;;;25.17;33.11;100291.97;126828;1098;102460;-79
2022/07/13 09:59:24;;;;;;;4.80;1.50;;;;;;;24.94;33.25;100294.33;126654;1098;103260;-77
2022/07/13 10:01:58;;;;;;;2.63;1.40;;;;;;;24.80;33.23;100293.83;126252;1099;102276;-80
2022/07/13 10:04:43;;;;;;;4.43;1.67;;;;;;;24.61;33.53;100293.43;126735;1099;103037;-77
2022/07/13 10:07:16;;;;;;;9.63;1.70;;;;;;;24.45;33.43;100300.05;126234;1099;103004;-77
2022/07/13 10:09:52;;;;;;;2.08;1.20;;;;;;;24.33;33.56;100312.85;126755;1099;102784;-78
2022/07/13 10:12:26;;;;;;;4.77;0.93;;;;;;;24.20;33.69;100303.36;126151;1099;103235;-77
2022/07/13 10:15:01;;;;;;;4.83;1.30;;;;;;;24.14;33.60;100303.50;126856;1098;102040;-78
2022/07/13 10:17:39;;;;;;;5.20;1.53;;;;;;;24.03;34.49;100318.02;126526;1099;102126;-79
2022/07/13 10:20:18;;;;;;;4.50;1.37;;;;;;;23.91;35.14;100320.11;126064;1101;112688;-77
2022/07/13 10:22:55;;;;;;;7.83;1.90;;;;;;;23.77;35.08;100318.56;125998;1102;102782;-79
2022/07/13 10:25:45;;;;;;;4.63;1.17;;;;;;;23.66;35.55;100326.83;126092;1102;102487;-78
2022/07/13 10:28:24;;;;;;;3.40;1.40;;;;;;;23.57;35.37;100331.50;125995;1099;103029;-78
2022/07/13 10:30:57;;;;;;;2.47;1.37;;;;;;;23.54;34.99;100327.08;117369;1099;10001582;-79
2022/07/13 10:33:36;;;;;;;1.40;1.00;;;;;;;23.54;35.67;100316.37;126105;1102;103030;-78
2022/07/13 10:36:10;;;;;;;2.57;1.10;;;;;;;23.52;35.44;100315.53;125117;1101;103687;-78
2022/07/13 10:39:11;;;;;;;4.57;1.33;;;;;;;23.48;35.23;100325.43;124823;1103;104350;-77
2022/07/13 10:42:17;;;;;;;5.17;1.53;;;;;;;23.50;35.79;100322.72;125658;1102;103440;-79
2022/07/13 10:44:51;;;;;;;5.03;1.40;;;;;;;23.64;35.96;100330.47;125553;1102;102455;-76
2022/07/13 10:47:47;;;;;;;6.47;1.33;;;;;;;23.72;35.85;100325.83;125508;1102;103971;-77
2022/07/13 10:50:36;;;;;;;2.90;1.00;;;;;;;23.66;36.86;100331.31;125428;1101;103199;-78
2022/07/13 10:54:06;;;;;;;4.70;1.13;;;;;;;23.52;37.79;100344.98;125652;1099;103869;-78
2022/07/13 10:57:17;;;;;;;3.70;1.50;;;;;;;23.38;38.19;100339.03;125301;1099;103380;-80
2022/07/13 10:59:53;;;;;;;11.77;2.37;;;;;;;23.41;37.58;100350.55;125292;1099;103842;-80
2022/07/13 11:02:54;;;;;;;5.63;1.57;;;;;;;23.52;37.42;100336.95;125499;1099;104295;-79
2022/07/13 11:06:06;;;;;;;2.57;1.30;;;;;;;23.69;37.38;100333.93;126098;1099;103849;-78
2022/07/13 11:09:10;;;;;;;7.47;1.90;;;;;;;23.80;37.42;100325.66;126046;1099;104190;-80
2022/07/13 11:11:51;;;;;;;3.23;1.37;;;;;;;23.81;37.10;100330.98;125354;1099;111641;-79
2022/07/13 11:15:01;;;;;;;13.47;2.10;;;;;;;23.88;37.60;100333.57;125669;1099;102899;-78
2022/07/13 11:17:38;;;;;;;6.73;1.80;;;;;;;23.98;37.58;100338.70;125086;1099;102759;-78
2022/07/13 11:20:20;;;;;;;9.60;1.73;;;;;;;23.96;37.37;100340.50;125232;1099;104321;-77
2022/07/13 11:25:58;;;;;;;5.13;1.40;;;;;;;24.00;37.84;100344.02;125069;1098;104214;-78
2022/07/13 11:28:38;;;;;;;12.53;2.73;;;;;;;24.02;37.93;100336.81;125045;1099;104159;-78
2022/07/13 11:31:18;;;;;;;5.40;1.40;;;;;;;24.08;37.80;100330.45;126028;1099;103194;-77
2022/07/13 11:33:57;;;;;;;19.70;2.50;;;;;;;24.14;37.68;100335.67;125017;1099;102664;-79
2022/07/13 11:36:36;;;;;;;8.07;1.50;;;;;;;24.08;37.53;100335.81;125834;1099;102620;-78
2022/07/13 11:39:57;;;;;;;5.37;1.60;;;;;;;23.94;37.18;100333.44;126063;1099;104156;-78
2022/07/13 11:42:38;;;;;;;2.77;1.70;;;;;;;23.71;36.98;100336.58;124449;1102;102854;-78
2022/07/13 11:45:23;;;;;;;2.37;1.60;;;;;;;23.74;37.27;100332.02;124888;1103;104287;-78
2022/07/13 11:47:58;;;;;;;3.97;1.50;;;;;;;23.87;36.98;100332.66;124334;1102;104268;-79
2022/07/13 11:50:53;;;;;;;7.30;2.00;;;;;;;24.03;36.94;100336.78;125090;1104;103209;-77
2022/07/13 11:53:33;;;;;;;4.10;1.57;;;;;;;24.19;37.20;100339.11;125795;1102;110898;-78
2022/07/13 12:00:05;;;;;;;4.23;1.50;;;;;;;24.17;37.40;100338.28;125566;1102;103559;-79
2022/07/13 12:03:01;;;;;;;;;;;;;;;;;;;;;
2022/07/13 12:05:45;;;;;;;5.13;1.40;;;;;;;23.88;37.50;100350.52;126029;1099;102812;-79
2022/07/13 12:08:34;;;;;;;1.62;1.27;;;;;;;23.79;37.76;100350.67;126004;1102;103020;-78
2022/07/13 12:11:12;;;;;;;1.43;1.10;;;;;;;23.73;37.28;100345.45;125985;1102;103247;-79
2022/07/13 12:13:51;;;;;;;2.77;1.30;;;;;;;23.66;37.44;100350.94;125930;1099;118405;-79